<?xml version="1.0" encoding="utf-8"?>
<gpx xmlns:xsi="http://www.w3.org/2001/XMLSchema-instance" xmlns:xsd="http://www.w3.org/2001/XMLSchema" version="1.1" creator="Shapelink.com" xmlns="http://www.topografix.com/GPX/1/1" xmlns:gpxtpx="http://www.garmin.com/xmlschemas/TrackPointExtension/v1">
  <metadata>
    <name>Cycling 7.43 km, 2020-08-29</name>
    <desc></desc>
    <author><name>Marian Moron</name></author> 
    <time>2020-08-29T13:30:34Z</time>
  </metadata>
  <trk>
    <name>Cycling 7.43 km, 2020-08-29</name>
    <trkseg>
      <trkpt lat="51.228848292162" lon="4.448689401688">
        <ele>1.2</ele>
        <time>2020-08-29T13:30:34Z</time>
      </trkpt>
      <trkpt lat="51.228956753948" lon="4.448486811165">
        <ele>1</ele>
        <time>2020-08-29T13:30:48Z</time>
      </trkpt>
      <trkpt lat="51.228901098132" lon="4.448326381599">
        <ele>0</ele>
        <time>2020-08-29T13:30:55Z</time>
      </trkpt>
      <trkpt lat="51.228593314764" lon="4.447610232063">
        <ele>0.6</ele>
        <time>2020-08-29T13:31:17Z</time>
      </trkpt>
      <trkpt lat="51.228183356035" lon="4.447262969946">
        <ele>1.2</ele>
        <time>2020-08-29T13:31:39Z</time>
      </trkpt>
      <trkpt lat="51.227775408962" lon="4.447869735687">
        <ele>0</ele>
        <time>2020-08-29T13:32:01Z</time>
      </trkpt>
      <trkpt lat="51.227365114957" lon="4.448471220831">
        <ele>0.6</ele>
        <time>2020-08-29T13:32:25Z</time>
      </trkpt>
      <trkpt lat="51.227070994086" lon="4.449171109481">
        <ele>2.2</ele>
        <time>2020-08-29T13:32:47Z</time>
      </trkpt>
      <trkpt lat="51.226859351111" lon="4.449404377758">
        <ele>1.8</ele>
        <time>2020-08-29T13:33:14Z</time>
      </trkpt>
      <trkpt lat="51.226636141114" lon="4.449506385481">
        <ele>1</ele>
        <time>2020-08-29T13:33:37Z</time>
      </trkpt>
      <trkpt lat="51.226585179162" lon="4.449464978895">
        <ele>1.2</ele>
        <time>2020-08-29T13:33:44Z</time>
      </trkpt>
      <trkpt lat="51.226273623939" lon="4.448843293372">
        <ele>2.4</ele>
        <time>2020-08-29T13:34:10Z</time>
      </trkpt>
      <trkpt lat="51.225935330455" lon="4.449515354114">
        <ele>0.8</ele>
        <time>2020-08-29T13:34:33Z</time>
      </trkpt>
      <trkpt lat="51.225419843605" lon="4.449700761742">
        <ele>2</ele>
        <time>2020-08-29T13:34:55Z</time>
      </trkpt>
      <trkpt lat="51.224923886582" lon="4.450027404385">
        <ele>0</ele>
        <time>2020-08-29T13:35:16Z</time>
      </trkpt>
      <trkpt lat="51.22451669388" lon="4.450652191211">
        <ele>0</ele>
        <time>2020-08-29T13:35:32Z</time>
      </trkpt>
      <trkpt lat="51.224109082083" lon="4.451258956952">
        <ele>0</ele>
        <time>2020-08-29T13:35:54Z</time>
      </trkpt>
      <trkpt lat="51.223567695162" lon="4.451266919757">
        <ele>0</ele>
        <time>2020-08-29T13:36:17Z</time>
      </trkpt>
      <trkpt lat="51.22302387749" lon="4.451118560127">
        <ele>0</ele>
        <time>2020-08-29T13:36:42Z</time>
      </trkpt>
      <trkpt lat="51.222491123926" lon="4.451085116346">
        <ele>0</ele>
        <time>2020-08-29T13:37:06Z</time>
      </trkpt>
      <trkpt lat="51.221964153873" lon="4.451324922505">
        <ele>0</ele>
        <time>2020-08-29T13:37:29Z</time>
      </trkpt>
      <trkpt lat="51.221448667023" lon="4.451615522978">
        <ele>0</ele>
        <time>2020-08-29T13:37:55Z</time>
      </trkpt>
      <trkpt lat="51.220893533786" lon="4.451757177088">
        <ele>0.8</ele>
        <time>2020-08-29T13:38:21Z</time>
      </trkpt>
      <trkpt lat="51.220337143264" lon="4.451891371307">
        <ele>2.6</ele>
        <time>2020-08-29T13:38:43Z</time>
      </trkpt>
      <trkpt lat="51.219784943692" lon="4.451997150885">
        <ele>8.2</ele>
        <time>2020-08-29T13:39:04Z</time>
      </trkpt>
      <trkpt lat="51.219246825712" lon="4.452065044275">
        <ele>2.2</ele>
        <time>2020-08-29T13:39:25Z</time>
      </trkpt>
      <trkpt lat="51.219143393066" lon="4.452076862754">
        <ele>2</ele>
        <time>2020-08-29T13:39:30Z</time>
      </trkpt>
      <trkpt lat="51.219123863239" lon="4.452092788364">
        <ele>1.4</ele>
        <time>2020-08-29T13:39:57Z</time>
      </trkpt>
      <trkpt lat="51.218649531518" lon="4.451690960078">
        <ele>0.4</ele>
        <time>2020-08-29T13:40:17Z</time>
      </trkpt>
      <trkpt lat="51.218247535594" lon="4.452133775855">
        <ele>0</ele>
        <time>2020-08-29T13:40:40Z</time>
      </trkpt>
      <trkpt lat="51.218242925549" lon="4.452202591254">
        <ele>0</ele>
        <time>2020-08-29T13:40:43Z</time>
      </trkpt>
      <trkpt lat="51.218258515883" lon="4.452253134111">
        <ele>2.8</ele>
        <time>2020-08-29T13:41:18Z</time>
      </trkpt>
      <trkpt lat="51.218254324933" lon="4.452332929799">
        <ele>3.2</ele>
        <time>2020-08-29T13:41:21Z</time>
      </trkpt>
      <trkpt lat="51.21822607793" lon="4.453221997932">
        <ele>1</ele>
        <time>2020-08-29T13:41:38Z</time>
      </trkpt>
      <trkpt lat="51.218174864521" lon="4.454082567605">
        <ele>1.2</ele>
        <time>2020-08-29T13:42:02Z</time>
      </trkpt>
      <trkpt lat="51.218149215907" lon="4.454951602997">
        <ele>1.8</ele>
        <time>2020-08-29T13:42:24Z</time>
      </trkpt>
      <trkpt lat="51.218104372742" lon="4.455826254262">
        <ele>0.4</ele>
        <time>2020-08-29T13:42:46Z</time>
      </trkpt>
      <trkpt lat="51.218048968383" lon="4.45670316864">
        <ele>0</ele>
        <time>2020-08-29T13:43:08Z</time>
      </trkpt>
      <trkpt lat="51.217799103944" lon="4.457483188254">
        <ele>0</ele>
        <time>2020-08-29T13:43:31Z</time>
      </trkpt>
      <trkpt lat="51.21745410494" lon="4.458168157122">
        <ele>0</ele>
        <time>2020-08-29T13:43:50Z</time>
      </trkpt>
      <trkpt lat="51.217112793972" lon="4.458864441555">
        <ele>1.4</ele>
        <time>2020-08-29T13:44:07Z</time>
      </trkpt>
      <trkpt lat="51.216779026714" lon="4.459562570006">
        <ele>4.4</ele>
        <time>2020-08-29T13:44:26Z</time>
      </trkpt>
      <trkpt lat="51.21644492418" lon="4.460241923001">
        <ele>0</ele>
        <time>2020-08-29T13:44:53Z</time>
      </trkpt>
      <trkpt lat="51.216146277083" lon="4.460988163558">
        <ele>0</ele>
        <time>2020-08-29T13:45:19Z</time>
      </trkpt>
      <trkpt lat="51.215826088503" lon="4.461680005584">
        <ele>0</ele>
        <time>2020-08-29T13:45:48Z</time>
      </trkpt>
      <trkpt lat="51.215487208286" lon="4.462358771846">
        <ele>0</ele>
        <time>2020-08-29T13:46:14Z</time>
      </trkpt>
      <trkpt lat="51.215127792414" lon="4.461704396913">
        <ele>0.4</ele>
        <time>2020-08-29T13:46:43Z</time>
      </trkpt>
      <trkpt lat="51.215022851026" lon="4.461459729252">
        <ele>0</ele>
        <time>2020-08-29T13:46:52Z</time>
      </trkpt>
      <trkpt lat="51.214987479408" lon="4.461436259932">
        <ele>0</ele>
        <time>2020-08-29T13:46:54Z</time>
      </trkpt>
      <trkpt lat="51.214932075049" lon="4.461232076848">
        <ele>0</ele>
        <time>2020-08-29T13:47:01Z</time>
      </trkpt>
      <trkpt lat="51.214616412695" lon="4.460518358063">
        <ele>0</ele>
        <time>2020-08-29T13:47:26Z</time>
      </trkpt>
      <trkpt lat="51.214297984314" lon="4.45976675309">
        <ele>0</ele>
        <time>2020-08-29T13:47:50Z</time>
      </trkpt>
      <trkpt lat="51.21406865553" lon="4.458958989387">
        <ele>0</ele>
        <time>2020-08-29T13:48:11Z</time>
      </trkpt>
      <trkpt lat="51.214007886755" lon="4.458112333668">
        <ele>0.2</ele>
        <time>2020-08-29T13:48:36Z</time>
      </trkpt>
      <trkpt lat="51.213805547689" lon="4.457371038432">
        <ele>8</ele>
        <time>2020-08-29T13:48:57Z</time>
      </trkpt>
      <trkpt lat="51.213469768775" lon="4.456940544048">
        <ele>25.4</ele>
        <time>2020-08-29T13:49:19Z</time>
      </trkpt>
      <trkpt lat="51.213488041317" lon="4.45692193623">
        <ele>23.4</ele>
        <time>2020-08-29T13:49:21Z</time>
      </trkpt>
      <trkpt lat="51.213480162331" lon="4.456837781954">
        <ele>14.4</ele>
        <time>2020-08-29T13:49:28Z</time>
      </trkpt>
      <trkpt lat="51.213433223691" lon="4.456740468095">
        <ele>7.8</ele>
        <time>2020-08-29T13:49:37Z</time>
      </trkpt>
      <trkpt lat="51.212919245583" lon="4.456580541443">
        <ele>6.4</ele>
        <time>2020-08-29T13:50:02Z</time>
      </trkpt>
      <trkpt lat="51.212393532815" lon="4.45626311889">
        <ele>19.6</ele>
        <time>2020-08-29T13:50:21Z</time>
      </trkpt>
      <trkpt lat="51.211934707609" lon="4.455811921213">
        <ele>18.4</ele>
        <time>2020-08-29T13:50:48Z</time>
      </trkpt>
      <trkpt lat="51.21157252571" lon="4.455155702262">
        <ele>13.4</ele>
        <time>2020-08-29T13:51:11Z</time>
      </trkpt>
      <trkpt lat="51.211367336798" lon="4.454355482269">
        <ele>12.8</ele>
        <time>2020-08-29T13:51:35Z</time>
      </trkpt>
      <trkpt lat="51.211093500125" lon="4.453580994709">
        <ele>21.2</ele>
        <time>2020-08-29T13:51:58Z</time>
      </trkpt>
      <trkpt lat="51.210787644594" lon="4.453040110702">
        <ele>8.2</ele>
        <time>2020-08-29T13:52:24Z</time>
      </trkpt>
      <trkpt lat="51.210801223272" lon="4.452951094924">
        <ele>0</ele>
        <time>2020-08-29T13:59:04Z</time>
      </trkpt>
      <trkpt lat="51.210623359354" lon="4.453190649626">
        <ele>0</ele>
        <time>2020-08-29T13:59:18Z</time>
      </trkpt>
      <trkpt lat="51.210362766083" lon="4.453954240716">
        <ele>0</ele>
        <time>2020-08-29T13:59:43Z</time>
      </trkpt>
      <trkpt lat="51.210131341824" lon="4.454745659714">
        <ele>0</ele>
        <time>2020-08-29T14:00:03Z</time>
      </trkpt>
      <trkpt lat="51.209875023322" lon="4.455510927184">
        <ele>0</ele>
        <time>2020-08-29T14:00:28Z</time>
      </trkpt>
      <trkpt lat="51.209860857911" lon="4.455571025407">
        <ele>0</ele>
        <time>2020-08-29T14:00:30Z</time>
      </trkpt>
      <trkpt lat="51.20960529378" lon="4.456348362813">
        <ele>0</ele>
        <time>2020-08-29T14:00:52Z</time>
      </trkpt>
      <trkpt lat="51.209423322731" lon="4.457153611946">
        <ele>0</ele>
        <time>2020-08-29T14:01:15Z</time>
      </trkpt>
      <trkpt lat="51.209417371582" lon="4.457270790908">
        <ele>0</ele>
        <time>2020-08-29T14:01:25Z</time>
      </trkpt>
      <trkpt lat="51.209489875017" lon="4.458166983656">
        <ele>2.6</ele>
        <time>2020-08-29T14:01:50Z</time>
      </trkpt>
      <trkpt lat="51.209549051231" lon="4.458571158874">
        <ele>4.4</ele>
        <time>2020-08-29T14:02:01Z</time>
      </trkpt>
      <trkpt lat="51.20954997324" lon="4.458627317604">
        <ele>4.2</ele>
        <time>2020-08-29T14:02:04Z</time>
      </trkpt>
      <trkpt lat="51.209614346232" lon="4.458657995358">
        <ele>4.8</ele>
        <time>2020-08-29T14:02:09Z</time>
      </trkpt>
      <trkpt lat="51.209619123915" lon="4.458712561527">
        <ele>5.4</ele>
        <time>2020-08-29T14:02:12Z</time>
      </trkpt>
      <trkpt lat="51.209707050046" lon="4.459570197535">
        <ele>2.8</ele>
        <time>2020-08-29T14:02:38Z</time>
      </trkpt>
      <trkpt lat="51.209788941209" lon="4.460313839703">
        <ele>2.8</ele>
        <time>2020-08-29T14:02:56Z</time>
      </trkpt>
      <trkpt lat="51.209769243744" lon="4.460305206346">
        <ele>2.8</ele>
        <time>2020-08-29T14:02:59Z</time>
      </trkpt>
      <trkpt lat="51.209748708089" lon="4.460155589431">
        <ele>2.8</ele>
        <time>2020-08-29T14:03:03Z</time>
      </trkpt>
      <trkpt lat="51.209768321735" lon="4.460091635534">
        <ele>2.8</ele>
        <time>2020-08-29T14:03:05Z</time>
      </trkpt>
      <trkpt lat="51.210315492167" lon="4.460042685238">
        <ele>6.4</ele>
        <time>2020-08-29T14:03:31Z</time>
      </trkpt>
      <trkpt lat="51.210476508466" lon="4.460148632454">
        <ele>8.2</ele>
        <time>2020-08-29T14:03:37Z</time>
      </trkpt>
      <trkpt lat="51.210556974706" lon="4.460137987441">
        <ele>8</ele>
        <time>2020-08-29T14:03:40Z</time>
      </trkpt>
      <trkpt lat="51.210861153857" lon="4.460254747308">
        <ele>4.6</ele>
        <time>2020-08-29T14:03:52Z</time>
      </trkpt>
      <trkpt lat="51.211310339878" lon="4.460422133851">
        <ele>3.4</ele>
        <time>2020-08-29T14:04:12Z</time>
      </trkpt>
      <trkpt lat="51.2114057259" lon="4.460270253823">
        <ele>1.6</ele>
        <time>2020-08-29T14:04:17Z</time>
      </trkpt>
      <trkpt lat="51.211693392708" lon="4.459522923619">
        <ele>0.8</ele>
        <time>2020-08-29T14:04:38Z</time>
      </trkpt>
      <trkpt lat="51.212094131347" lon="4.458943901967">
        <ele>0</ele>
        <time>2020-08-29T14:04:54Z</time>
      </trkpt>
      <trkpt lat="51.212108799672" lon="4.458918001896">
        <ele>0</ele>
        <time>2020-08-29T14:04:55Z</time>
      </trkpt>
      <trkpt lat="51.212247687755" lon="4.458513156126">
        <ele>2.2</ele>
        <time>2020-08-29T14:05:09Z</time>
      </trkpt>
      <trkpt lat="51.212451619382" lon="4.458644835775">
        <ele>2.6</ele>
        <time>2020-08-29T14:05:19Z</time>
      </trkpt>
      <trkpt lat="51.212817824593" lon="4.457968919359">
        <ele>0.4</ele>
        <time>2020-08-29T14:05:40Z</time>
      </trkpt>
      <trkpt lat="51.213192160247" lon="4.457340612135">
        <ele>0.2</ele>
        <time>2020-08-29T14:05:59Z</time>
      </trkpt>
      <trkpt lat="51.213349320872" lon="4.457172219764">
        <ele>0.6</ele>
        <time>2020-08-29T14:06:07Z</time>
      </trkpt>
      <trkpt lat="51.21339055982" lon="4.457209854495">
        <ele>0.6</ele>
        <time>2020-08-29T14:06:09Z</time>
      </trkpt>
      <trkpt lat="51.213693062591" lon="4.457940839994">
        <ele>1</ele>
        <time>2020-08-29T14:06:26Z</time>
      </trkpt>
      <trkpt lat="51.213717202463" lon="4.458005464443">
        <ele>1</ele>
        <time>2020-08-29T14:06:31Z</time>
      </trkpt>
      <trkpt lat="51.213836309262" lon="4.45812138612">
        <ele>9.2</ele>
        <time>2020-08-29T14:17:47Z</time>
      </trkpt>
      <trkpt lat="51.214052227006" lon="4.45891599024">
        <ele>9.2</ele>
        <time>2020-08-29T14:18:15Z</time>
      </trkpt>
      <trkpt lat="51.214323884385" lon="4.4596988597">
        <ele>9.6</ele>
        <time>2020-08-29T14:18:35Z</time>
      </trkpt>
      <trkpt lat="51.214592608099" lon="4.460475694192">
        <ele>7</ele>
        <time>2020-08-29T14:18:54Z</time>
      </trkpt>
      <trkpt lat="51.214907516082" lon="4.461189329158">
        <ele>1.2</ele>
        <time>2020-08-29T14:19:15Z</time>
      </trkpt>
      <trkpt lat="51.214958310396" lon="4.46126040767">
        <ele>0</ele>
        <time>2020-08-29T14:19:18Z</time>
      </trkpt>
      <trkpt lat="51.215250251973" lon="4.462022909113">
        <ele>0</ele>
        <time>2020-08-29T14:19:40Z</time>
      </trkpt>
      <trkpt lat="51.21546088912" lon="4.462458348818">
        <ele>0</ele>
        <time>2020-08-29T14:19:53Z</time>
      </trkpt>
      <trkpt lat="51.215828100159" lon="4.461839094046">
        <ele>0</ele>
        <time>2020-08-29T14:20:12Z</time>
      </trkpt>
      <trkpt lat="51.2161666451" lon="4.461138534844">
        <ele>0</ele>
        <time>2020-08-29T14:20:31Z</time>
      </trkpt>
      <trkpt lat="51.216512733751" lon="4.460447111913">
        <ele>0</ele>
        <time>2020-08-29T14:20:51Z</time>
      </trkpt>
      <trkpt lat="51.216832922331" lon="4.459733309309">
        <ele>0</ele>
        <time>2020-08-29T14:21:12Z</time>
      </trkpt>
      <trkpt lat="51.217079517829" lon="4.459121933523">
        <ele>2.4</ele>
        <time>2020-08-29T14:21:29Z</time>
      </trkpt>
      <trkpt lat="51.21710793247" lon="4.458967455106">
        <ele>2.2</ele>
        <time>2020-08-29T14:21:33Z</time>
      </trkpt>
      <trkpt lat="51.217175406765" lon="4.458909955272">
        <ele>2.2</ele>
        <time>2020-08-29T14:21:37Z</time>
      </trkpt>
      <trkpt lat="51.217525770185" lon="4.458251976122">
        <ele>3.2</ele>
        <time>2020-08-29T14:22:00Z</time>
      </trkpt>
      <trkpt lat="51.217896836898" lon="4.457604725804">
        <ele>3.2</ele>
        <time>2020-08-29T14:22:25Z</time>
      </trkpt>
      <trkpt lat="51.218282739574" lon="4.456971808535">
        <ele>1.6</ele>
        <time>2020-08-29T14:22:46Z</time>
      </trkpt>
      <trkpt lat="51.218632851537" lon="4.456529830948">
        <ele>0.4</ele>
        <time>2020-08-29T14:23:06Z</time>
      </trkpt>
      <trkpt lat="51.219123108868" lon="4.456120375133">
        <ele>1.8</ele>
        <time>2020-08-29T14:23:32Z</time>
      </trkpt>
      <trkpt lat="51.219645636514" lon="4.45576188127">
        <ele>0</ele>
        <time>2020-08-29T14:23:55Z</time>
      </trkpt>
      <trkpt lat="51.219926681621" lon="4.455586951017">
        <ele>0</ele>
        <time>2020-08-29T14:24:06Z</time>
      </trkpt>
      <trkpt lat="51.219944115973" lon="4.455620059522">
        <ele>0</ele>
        <time>2020-08-29T14:24:08Z</time>
      </trkpt>
      <trkpt lat="51.219952078778" lon="4.455655347321">
        <ele>0</ele>
        <time>2020-08-29T14:24:10Z</time>
      </trkpt>
      <trkpt lat="51.219980744876" lon="4.455664315954">
        <ele>0</ele>
        <time>2020-08-29T14:24:15Z</time>
      </trkpt>
      <trkpt lat="51.22011954914" lon="4.455518889989">
        <ele>5.2</ele>
        <time>2020-08-29T14:24:22Z</time>
      </trkpt>
      <trkpt lat="51.220541493986" lon="4.454973898851">
        <ele>4.8</ele>
        <time>2020-08-29T14:24:44Z</time>
      </trkpt>
      <trkpt lat="51.220952542362" lon="4.454434439767">
        <ele>3</ele>
        <time>2020-08-29T14:25:05Z</time>
      </trkpt>
      <trkpt lat="51.221512118006" lon="4.454445587694">
        <ele>2</ele>
        <time>2020-08-29T14:25:22Z</time>
      </trkpt>
      <trkpt lat="51.222068424709" lon="4.454434775043">
        <ele>2</ele>
        <time>2020-08-29T14:25:38Z</time>
      </trkpt>
      <trkpt lat="51.222612158562" lon="4.45440066071">
        <ele>3.4</ele>
        <time>2020-08-29T14:25:55Z</time>
      </trkpt>
      <trkpt lat="51.222626994525" lon="4.454404935479">
        <ele>3</ele>
        <time>2020-08-29T14:25:59Z</time>
      </trkpt>
      <trkpt lat="51.22265507389" lon="4.45436880949">
        <ele>2</ele>
        <time>2020-08-29T14:26:07Z</time>
      </trkpt>
      <trkpt lat="51.222660689763" lon="4.4543428256">
        <ele>2</ele>
        <time>2020-08-29T14:26:08Z</time>
      </trkpt>
      <trkpt lat="51.22292664745" lon="4.453593316102">
        <ele>1.6</ele>
        <time>2020-08-29T14:26:29Z</time>
      </trkpt>
      <trkpt lat="51.22325857069" lon="4.452892840719">
        <ele>0.8</ele>
        <time>2020-08-29T14:26:46Z</time>
      </trkpt>
      <trkpt lat="51.223575322691" lon="4.452194879906">
        <ele>0.2</ele>
        <time>2020-08-29T14:27:06Z</time>
      </trkpt>
      <trkpt lat="51.223944545386" lon="4.45153656548">
        <ele>0</ele>
        <time>2020-08-29T14:27:38Z</time>
      </trkpt>
      <trkpt lat="51.224350480803" lon="4.450947653186">
        <ele>0</ele>
        <time>2020-08-29T14:27:57Z</time>
      </trkpt>
      <trkpt lat="51.224741915533" lon="4.450332673183">
        <ele>0</ele>
        <time>2020-08-29T14:28:18Z</time>
      </trkpt>
      <trkpt lat="51.225054728041" lon="4.449912320898">
        <ele>0</ele>
        <time>2020-08-29T14:28:40Z</time>
      </trkpt>
      <trkpt lat="51.22559376803" lon="4.449702186665">
        <ele>0</ele>
        <time>2020-08-29T14:29:03Z</time>
      </trkpt>
      <trkpt lat="51.226086707569" lon="4.449386105216">
        <ele>0</ele>
        <time>2020-08-29T14:29:22Z</time>
      </trkpt>
      <trkpt lat="51.226339086578" lon="4.448624106687">
        <ele>0</ele>
        <time>2020-08-29T14:29:41Z</time>
      </trkpt>
      <trkpt lat="51.226680313727" lon="4.447919021259">
        <ele>0</ele>
        <time>2020-08-29T14:30:02Z</time>
      </trkpt>
      <trkpt lat="51.227078956891" lon="4.44733723358">
        <ele>0</ele>
        <time>2020-08-29T14:30:21Z</time>
      </trkpt>
      <trkpt lat="51.227488747982" lon="4.446735329341">
        <ele>0</ele>
        <time>2020-08-29T14:30:41Z</time>
      </trkpt>
      <trkpt lat="51.227910441371" lon="4.446124791745">
        <ele>0</ele>
        <time>2020-08-29T14:31:01Z</time>
      </trkpt>
      <trkpt lat="51.228268683777" lon="4.445423059077">
        <ele>0</ele>
        <time>2020-08-29T14:31:18Z</time>
      </trkpt>
      <trkpt lat="51.228321405928" lon="4.445168668412">
        <ele>0</ele>
        <time>2020-08-29T14:31:23Z</time>
      </trkpt>
      <trkpt lat="51.228398603227" lon="4.445090632923">
        <ele>0</ele>
        <time>2020-08-29T14:31:26Z</time>
      </trkpt>
      <trkpt lat="51.22842852661" lon="4.444957528351">
        <ele>0</ele>
        <time>2020-08-29T14:31:29Z</time>
      </trkpt>
      <trkpt lat="51.22846959792" lon="4.444894496463">
        <ele>0</ele>
        <time>2020-08-29T14:31:31Z</time>
      </trkpt>
      <trkpt lat="51.228487451367" lon="4.444806486513">
        <ele>0</ele>
        <time>2020-08-29T14:31:33Z</time>
      </trkpt>
      <trkpt lat="51.228567749969" lon="4.444726355549">
        <ele>0</ele>
        <time>2020-08-29T14:31:37Z</time>
      </trkpt>
      <trkpt lat="51.228593985316" lon="4.444656618141">
        <ele>0</ele>
        <time>2020-08-29T14:31:39Z</time>
      </trkpt>
      <trkpt lat="51.22864813239" lon="4.444573302055">
        <ele>0</ele>
        <time>2020-08-29T14:31:42Z</time>
      </trkpt>
      <trkpt lat="51.228694987211" lon="4.444476910205">
        <ele>0</ele>
        <time>2020-08-29T14:31:45Z</time>
      </trkpt>
      <trkpt lat="51.228738573091" lon="4.444431899402">
        <ele>0</ele>
        <time>2020-08-29T14:31:47Z</time>
      </trkpt>
      <trkpt lat="51.228827421231" lon="4.444278175356">
        <ele>0</ele>
        <time>2020-08-29T14:31:52Z</time>
      </trkpt>
      <trkpt lat="51.228848292162" lon="4.444193518166">
        <ele>0</ele>
        <time>2020-08-29T14:31:54Z</time>
      </trkpt>
      <trkpt lat="51.228943762003" lon="4.444134174314">
        <ele>0</ele>
        <time>2020-08-29T14:31:58Z</time>
      </trkpt>
      <trkpt lat="51.228974020662" lon="4.444063598716">
        <ele>0</ele>
        <time>2020-08-29T14:32:00Z</time>
      </trkpt>
      <trkpt lat="51.229119530446" lon="4.443928650126">
        <ele>0</ele>
        <time>2020-08-29T14:32:06Z</time>
      </trkpt>
      <trkpt lat="51.229197817392" lon="4.443925967918">
        <ele>0</ele>
        <time>2020-08-29T14:32:09Z</time>
      </trkpt>
      <trkpt lat="51.229268309171" lon="4.443858493623">
        <ele>0</ele>
        <time>2020-08-29T14:32:12Z</time>
      </trkpt>
      <trkpt lat="51.229345757927" lon="4.443856398148">
        <ele>0</ele>
        <time>2020-08-29T14:32:15Z</time>
      </trkpt>
      <trkpt lat="51.229421446484" lon="4.443797892486">
        <ele>0</ele>
        <time>2020-08-29T14:32:18Z</time>
      </trkpt>
      <trkpt lat="51.229466792563" lon="4.443843741479">
        <ele>0</ele>
        <time>2020-08-29T14:32:20Z</time>
      </trkpt>
      <trkpt lat="51.229703497419" lon="4.444618480496">
        <ele>0</ele>
        <time>2020-08-29T14:32:39Z</time>
      </trkpt>
      <trkpt lat="51.229714561527" lon="4.444815622784">
        <ele>0</ele>
        <time>2020-08-29T14:32:44Z</time>
      </trkpt>
      <trkpt lat="51.229311727413" lon="4.445449797338">
        <ele>4.6</ele>
        <time>2020-08-29T14:33:03Z</time>
      </trkpt>
      <trkpt lat="51.22891802957" lon="4.44607659582">
        <ele>3.8</ele>
        <time>2020-08-29T14:33:21Z</time>
      </trkpt>
      <trkpt lat="51.228491642317" lon="4.44661555199">
        <ele>3</ele>
        <time>2020-08-29T14:33:40Z</time>
      </trkpt>
      <trkpt lat="51.228218895291" lon="4.447085692761">
        <ele>3.2</ele>
        <time>2020-08-29T14:34:08Z</time>
      </trkpt>
      <trkpt lat="51.228261391524" lon="4.447065408563">
        <ele>4.2</ele>
        <time>2020-08-29T14:34:11Z</time>
      </trkpt>
      <trkpt lat="51.228638744662" lon="4.447732272527">
        <ele>1</ele>
        <time>2020-08-29T14:34:27Z</time>
      </trkpt>
      <trkpt lat="51.229031520496" lon="4.448351192023">
        <ele>0.4</ele>
        <time>2020-08-29T14:34:49Z</time>
      </trkpt>
      <trkpt lat="51.229097988963" lon="4.448554620736">
        <ele>2.4</ele>
        <time>2020-08-29T14:34:57Z</time>
      </trkpt>
      <trkpt lat="51.228931021515" lon="4.448657047554">
        <ele>3.8</ele>
        <time>2020-08-29T14:35:07Z</time>
      </trkpt>
      <trkpt lat="51.228900511399" lon="4.448696023389">
        <ele>6.2</ele>
        <time>2020-08-29T14:35:51Z</time>
      </trkpt>
      <trkpt lat="51.228870671835" lon="4.44876383296">
        <ele>6.2</ele>
        <time>2020-08-29T14:35:54Z</time>
      </trkpt>
      <trkpt lat="51.228501030045" lon="4.44926758515">
        <ele>0</ele>
        <time>2020-08-29T14:36:25Z</time>
      </trkpt>
    </trkseg>
  </trk>
</gpx>